Time;durP1;ratioP1;P1;durP2;ratioP2;P2;SDS_P1;SDS_P2;PMS_P1;PMS_P2;Temp;Humidity;BMP_temperature;BMP_pressure;BME280_temperature;BME280_humidity;BME280_pressure;Samples;Min_cycle;Max_cycle;Signal;HPM_P1;HPM_P2
2023/12/13 00:01:50;;;;;;;0.10;0.10;;;;;;;6.62;100.00;94814.19;5047504;28;20067;-77
2023/12/13 00:04:35;;;;;;;0.20;0.20;;;;;;;6.57;100.00;94816.03;5042967;28;20056;-77
2023/12/13 00:07:21;;;;;;;0.10;0.10;;;;;;;6.67;100.00;94818.69;5046924;28;20076;-77
2023/12/13 00:10:08;;;;;;;0.20;0.20;;;;;;;6.57;100.00;94811.50;5046706;28;20401;-77
2023/12/13 00:12:53;;;;;;;0.15;0.15;;;;;;;6.59;100.00;94813.91;5045994;28;20122;-77
2023/12/13 00:15:39;;;;;;;0.10;0.10;;;;;;;6.63;100.00;94813.13;5048292;28;20040;-77
2023/12/13 00:18:25;;;;;;;0.20;0.20;;;;;;;6.56;100.00;94812.56;5045309;28;20044;-77
2023/12/13 00:21:13;;;;;;;0.20;0.20;;;;;;;6.60;100.00;94805.66;5045966;28;20033;-77
2023/12/13 00:23:59;;;;;;;0.20;0.20;;;;;;;6.69;100.00;94820.06;5045978;28;20044;-77
2023/12/13 00:26:45;;;;;;;0.20;0.20;;;;;;;6.72;100.00;94816.06;5045370;28;20025;-77
2023/12/13 00:29:30;;;;;;;0.30;0.30;;;;;;;6.77;100.00;94813.41;5047573;28;20059;-77
2023/12/13 00:32:16;;;;;;;0.20;0.20;;;;;;;6.85;100.00;94809.44;5032369;28;20478;-77
2023/12/13 00:35:02;;;;;;;0.20;0.20;;;;;;;6.93;100.00;94807.03;5046452;28;20042;-77
2023/12/13 00:37:48;;;;;;;0.10;0.10;;;;;;;6.92;100.00;94812.59;5045253;28;20500;-77
2023/12/13 00:40:34;;;;;;;0.20;0.20;;;;;;;6.91;100.00;94814.47;5047722;28;20055;-77
2023/12/13 00:43:21;;;;;;;0.17;0.17;;;;;;;6.88;100.00;94817.66;5047243;28;20052;-77
2023/12/13 00:46:14;;;;;;;0.20;0.20;;;;;;;6.84;100.00;94815.78;5046143;28;20044;-77
2023/12/13 00:49:00;;;;;;;0.20;0.20;;;;;;;6.80;100.00;94804.09;5045788;28;20190;-77
2023/12/13 00:51:46;;;;;;;0.20;0.20;;;;;;;6.88;100.00;94804.38;5046976;28;20174;-77
2023/12/13 00:54:32;;;;;;;0.10;0.10;;;;;;;6.83;100.00;94815.00;5046383;28;20257;-77
2023/12/13 00:57:17;;;;;;;0.20;0.20;;;;;;;6.87;100.00;94807.31;5047860;28;20056;-77
2023/12/13 01:00:05;;;;;;;0.10;0.10;;;;;;;6.85;100.00;94798.81;5047323;28;20041;-78
2023/12/13 01:02:51;;;;;;;0.20;0.20;;;;;;;6.76;100.00;94808.34;5042990;28;20099;-77
2023/12/13 01:05:37;;;;;;;0.20;0.20;;;;;;;6.62;100.00;94803.56;5046595;28;20044;-77
2023/12/13 01:08:24;;;;;;;0.20;0.20;;;;;;;6.70;100.00;94807.56;5047182;28;20040;-77
2023/12/13 01:11:10;;;;;;;0.10;0.10;;;;;;;6.65;100.00;94804.88;5045796;28;20036;-77
2023/12/13 01:13:58;;;;;;;0.20;0.20;;;;;;;6.43;100.00;94805.88;5044147;28;20155;-77
2023/12/13 01:16:44;;;;;;;0.10;0.10;;;;;;;6.32;100.00;94801.63;5044999;28;20123;-77
2023/12/13 01:19:31;;;;;;;0.10;0.10;;;;;;;6.12;100.00;94789.06;5046504;28;20910;-76
2023/12/13 01:22:17;;;;;;;0.20;0.20;;;;;;;5.90;100.00;94795.59;5046614;28;20545;-76
2023/12/13 01:25:03;;;;;;;0.20;0.20;;;;;;;5.84;100.00;94802.75;5043124;28;20522;-76
2023/12/13 01:27:49;;;;;;;0.10;0.10;;;;;;;5.82;100.00;94804.84;5045573;28;20115;-76
2023/12/13 01:30:35;;;;;;;0.20;0.20;;;;;;;5.97;100.00;94798.81;5044890;28;20053;-76
2023/12/13 01:33:20;;;;;;;0.10;0.10;;;;;;;5.92;100.00;94812.91;5042562;28;20139;-76
2023/12/13 01:36:07;;;;;;;0.20;0.20;;;;;;;5.73;100.00;94807.19;5045788;28;20071;-75
2023/12/13 01:38:52;;;;;;;0.20;0.20;;;;;;;5.75;100.00;94810.38;5046271;28;20044;-76
2023/12/13 01:41:38;;;;;;;0.13;0.13;;;;;;;5.85;100.00;94818.41;5045131;28;20041;-76
2023/12/13 01:44:24;;;;;;;0.20;0.20;;;;;;;5.93;100.00;94803.06;5043214;28;20044;-76
2023/12/13 01:47:11;;;;;;;0.20;0.20;;;;;;;5.92;100.00;94810.25;5045457;28;20037;-76
2023/12/13 01:49:58;;;;;;;0.20;0.20;;;;;;;5.81;100.00;94808.56;5001369;28;20118;-76
2023/12/13 01:52:44;;;;;;;0.10;0.10;;;;;;;5.63;100.00;94809.00;5030028;28;20191;-76
2023/12/13 01:55:30;;;;;;;0.10;0.10;;;;;;;5.54;100.00;94808.69;5044060;28;20036;-76
2023/12/13 01:58:18;;;;;;;0.10;0.10;;;;;;;5.50;100.00;94799.63;5046169;28;20044;-76
2023/12/13 02:01:05;;;;;;;0.13;0.13;;;;;;;5.55;100.00;94795.16;5043550;28;20120;-76
2023/12/13 02:03:52;;;;;;;0.20;0.20;;;;;;;5.67;100.00;94802.91;5032976;28;20445;-76
2023/12/13 02:06:40;;;;;;;0.17;0.17;;;;;;;5.75;100.00;94805.06;5047030;28;20115;-76
2023/12/13 02:09:26;;;;;;;0.13;0.13;;;;;;;5.77;100.00;94815.44;5045240;28;20523;-76
2023/12/13 02:12:12;;;;;;;0.10;0.10;;;;;;;5.76;100.00;94809.34;5042800;28;20033;-76
2023/12/13 02:14:57;;;;;;;0.10;0.10;;;;;;;5.78;100.00;94804.56;5048807;28;20045;-76
2023/12/13 02:17:53;;;;;;;0.15;0.15;;;;;;;5.75;100.00;94804.25;5048938;28;20159;-76
2023/12/13 02:20:39;;;;;;;0.17;0.17;;;;;;;5.79;100.00;94806.16;5039437;28;20745;-76
2023/12/13 02:23:27;;;;;;;0.20;0.20;;;;;;;5.76;100.00;94805.88;5049458;28;20044;-77
2023/12/13 02:26:13;;;;;;;0.20;0.20;;;;;;;5.79;100.00;94814.13;5047691;28;20041;-76
2023/12/13 02:28:59;;;;;;;0.22;0.22;;;;;;;5.79;100.00;94811.47;5047212;28;20051;-76
2023/12/13 02:31:45;;;;;;;0.10;0.10;;;;;;;5.69;100.00;94814.06;5046410;28;20558;-76
2023/12/13 02:34:31;;;;;;;0.20;0.20;;;;;;;5.67;100.00;94812.72;5046446;28;20646;-76
2023/12/13 02:37:17;;;;;;;0.20;0.20;;;;;;;5.58;100.00;94799.94;5050975;28;20068;-76
2023/12/13 02:40:04;;;;;;;0.20;0.20;;;;;;;5.42;100.00;94802.75;5047149;28;20275;-76
2023/12/13 02:42:50;;;;;;;0.10;0.10;;;;;;;5.41;100.00;94799.31;5045762;28;20048;-76
2023/12/13 02:45:36;;;;;;;0.10;0.10;;;;;;;5.51;100.00;94799.38;5050417;28;20053;-76
2023/12/13 02:48:22;;;;;;;0.10;0.10;;;;;;;5.59;100.00;94800.72;5047891;28;20051;-76
2023/12/13 02:51:08;;;;;;;0.10;0.10;;;;;;;5.53;100.00;94799.94;5048387;28;20048;-76
2023/12/13 02:53:54;;;;;;;0.10;0.10;;;;;;;5.51;100.00;94799.38;5049078;28;20052;-76
2023/12/13 02:56:40;;;;;;;0.10;0.10;;;;;;;5.52;100.00;94795.66;5047076;28;20519;-76
2023/12/13 02:59:26;;;;;;;0.20;0.20;;;;;;;5.54;100.00;94793.56;5049437;28;20074;-76
2023/12/13 03:02:12;;;;;;;0.10;0.10;;;;;;;5.53;100.00;94791.97;5049334;28;20473;-76
2023/12/13 03:04:59;;;;;;;0.10;0.10;;;;;;;5.55;100.00;94797.00;5045618;28;20052;-76
2023/12/13 03:07:45;;;;;;;0.10;0.10;;;;;;;5.54;100.00;94788.25;5046578;28;20094;-76
2023/12/13 03:10:31;;;;;;;0.10;0.10;;;;;;;5.58;100.00;94785.88;5049375;28;20505;-76
2023/12/13 03:13:17;;;;;;;0.10;0.10;;;;;;;5.68;100.00;94779.81;5047291;28;20127;-76
2023/12/13 03:16:05;;;;;;;0.20;0.20;;;;;;;5.68;100.00;94772.69;5049129;28;20123;-76
2023/12/13 03:18:51;;;;;;;0.13;0.13;;;;;;;5.70;100.00;94767.09;5048208;28;20462;-76
2023/12/13 03:21:37;;;;;;;0.10;0.10;;;;;;;5.62;100.00;94772.91;5045875;28;20040;-76
2023/12/13 03:24:23;;;;;;;0.10;0.10;;;;;;;5.55;100.00;94773.13;5046736;28;20440;-77
2023/12/13 03:27:09;;;;;;;0.20;0.20;;;;;;;5.46;100.00;94764.88;5048428;28;20394;-77
2023/12/13 03:29:55;;;;;;;0.20;0.20;;;;;;;5.42;100.00;94768.28;5046581;28;20040;-77
2023/12/13 03:32:41;;;;;;;0.10;0.10;;;;;;;5.35;100.00;94759.75;5046195;28;20565;-77
2023/12/13 03:35:26;;;;;;;0.20;0.20;;;;;;;5.34;100.00;94760.81;5046069;28;20489;-77
2023/12/13 03:38:12;;;;;;;0.20;0.20;;;;;;;5.47;100.00;94752.41;5034643;28;20437;-76
2023/12/13 03:40:58;;;;;;;0.15;0.15;;;;;;;5.53;100.00;94752.16;5046176;28;20045;-77
2023/12/13 03:43:44;;;;;;;0.10;0.10;;;;;;;5.58;100.00;94746.88;5048118;28;20048;-77
2023/12/13 03:46:30;;;;;;;0.10;0.10;;;;;;;5.68;100.00;94750.63;5048784;28;20036;-76
2023/12/13 03:49:16;;;;;;;0.10;0.10;;;;;;;5.69;100.00;94754.91;5048090;28;20061;-77
2023/12/13 03:52:02;;;;;;;0.20;0.20;;;;;;;5.68;100.00;94751.44;5046095;28;20336;-77
2023/12/13 03:54:48;;;;;;;0.10;0.10;;;;;;;5.68;100.00;94750.63;5044712;28;20139;-76
2023/12/13 03:57:34;;;;;;;0.10;0.10;;;;;;;5.62;100.00;94755.13;5047505;28;20075;-76
2023/12/13 04:00:20;;;;;;;0.10;0.10;;;;;;;5.59;100.00;94755.63;5045576;28;20041;-76
2023/12/13 04:03:07;;;;;;;0.20;0.20;;;;;;;5.62;100.00;94763.09;5040089;28;20048;-76
2023/12/13 04:05:53;;;;;;;0.10;0.10;;;;;;;5.55;100.00;94750.03;5043358;28;20511;-77
2023/12/13 04:08:39;;;;;;;0.20;0.20;;;;;;;5.58;100.00;94746.06;5046187;28;20036;-75
2023/12/13 04:11:24;;;;;;;0.20;0.20;;;;;;;5.60;100.00;94746.59;5047945;28;20094;-74
2023/12/13 04:14:10;;;;;;;0.20;0.20;;;;;;;5.50;100.00;94744.69;5044973;28;20028;-75
2023/12/13 04:16:56;;;;;;;0.20;0.20;;;;;;;5.47;100.00;94757.69;5044620;28;20036;-75
2023/12/13 04:19:42;;;;;;;0.20;0.20;;;;;;;5.42;100.00;94753.16;5047312;28;20047;-75
2023/12/13 04:22:28;;;;;;;0.10;0.10;;;;;;;5.42;100.00;94747.06;5046445;28;20579;-75
2023/12/13 04:25:14;;;;;;;0.10;0.10;;;;;;;5.45;100.00;94747.34;5046661;28;20509;-76
2023/12/13 04:28:01;;;;;;;0.10;0.10;;;;;;;5.46;100.00;94738.34;5043905;28;20037;-76
2023/12/13 04:30:47;;;;;;;0.20;0.20;;;;;;;5.41;100.00;94743.59;5045226;28;20041;-76
2023/12/13 04:33:33;;;;;;;0.20;0.20;;;;;;;5.32;100.00;94739.84;5046649;28;20611;-77
2023/12/13 04:36:19;;;;;;;0.20;0.20;;;;;;;5.20;100.00;94745.31;5044400;28;20097;-77
2023/12/13 04:39:05;;;;;;;0.20;0.20;;;;;;;5.17;100.00;94735.25;5045808;28;20068;-76
2023/12/13 04:41:51;;;;;;;0.20;0.20;;;;;;;5.11;100.00;94725.66;5047728;28;20123;-76
2023/12/13 04:44:39;;;;;;;0.10;0.10;;;;;;;5.12;100.00;94731.75;5045972;28;20045;-76
2023/12/13 04:47:25;;;;;;;0.15;0.15;;;;;;;5.17;100.00;94737.09;5046835;28;20066;-76
2023/12/13 04:50:11;;;;;;;0.10;0.10;;;;;;;5.30;100.00;94729.50;5046300;28;20389;-76
2023/12/13 04:52:58;;;;;;;0.20;0.20;;;;;;;5.42;100.00;94731.94;5046560;28;20071;-76
2023/12/13 04:55:44;;;;;;;0.20;0.20;;;;;;;5.47;100.00;94725.88;5047120;28;20093;-77
2023/12/13 04:58:31;;;;;;;0.10;0.10;;;;;;;5.46;100.00;94722.41;5044725;28;20485;-77
2023/12/13 05:01:16;;;;;;;0.15;0.15;;;;;;;5.49;100.00;94729.06;5044983;28;20044;-76
2023/12/13 05:04:02;;;;;;;0.20;0.20;;;;;;;5.48;100.00;94725.59;5046978;28;20480;-76
2023/12/13 05:06:48;;;;;;;0.20;0.20;;;;;;;5.47;100.00;94723.22;5049088;28;20051;-76
2023/12/13 05:09:35;;;;;;;0.20;0.20;;;;;;;5.49;100.00;94726.41;5046979;28;20221;-77
2023/12/13 05:12:21;;;;;;;0.20;0.20;;;;;;;5.56;100.00;94721.66;5048156;28;20393;-76
2023/12/13 05:15:07;;;;;;;0.20;0.20;;;;;;;5.48;100.00;94715.00;5049673;28;20042;-76
2023/12/13 05:17:53;;;;;;;0.20;0.20;;;;;;;5.46;100.00;94730.38;5048816;28;20091;-77
2023/12/13 05:20:38;;;;;;;0.10;0.10;;;;;;;5.42;100.00;94723.19;5047027;28;20555;-77
2023/12/13 05:23:26;;;;;;;0.15;0.15;;;;;;;5.38;100.00;94727.41;5047235;28;20044;-77
2023/12/13 05:26:12;;;;;;;0.20;0.20;;;;;;;5.32;100.00;94726.59;5050371;28;20083;-76
2023/12/13 05:28:58;;;;;;;0.20;0.20;;;;;;;5.38;100.00;94722.91;5048904;28;20041;-75
2023/12/13 05:31:44;;;;;;;0.10;0.10;;;;;;;5.29;100.00;94722.59;5047057;28;20033;-75
2023/12/13 05:34:29;;;;;;;0.20;0.20;;;;;;;5.19;100.00;94717.22;5048032;28;20367;-75
2023/12/13 05:37:15;;;;;;;0.20;0.20;;;;;;;5.13;100.00;94715.59;5047144;28;20122;-76
2023/12/13 05:40:03;;;;;;;0.20;0.20;;;;;;;5.02;100.00;94696.19;5039833;28;20040;-76
2023/12/13 05:42:49;;;;;;;0.20;0.20;;;;;;;4.97;100.00;94703.28;5047229;28;20114;-75
2023/12/13 05:45:34;;;;;;;0.20;0.20;;;;;;;5.02;100.00;94701.47;5046542;28;20041;-75
2023/12/13 05:48:21;;;;;;;0.20;0.20;;;;;;;5.02;100.00;94690.06;5049759;28;20059;-76
2023/12/13 05:51:07;;;;;;;0.20;0.20;;;;;;;4.98;100.00;94694.28;5050727;28;20051;-76
2023/12/13 05:53:53;;;;;;;0.20;0.20;;;;;;;4.90;100.00;94694.75;5053338;28;20041;-76
2023/12/13 05:56:38;;;;;;;0.20;0.20;;;;;;;4.82;100.00;94695.25;5051264;28;20040;-76
2023/12/13 05:59:24;;;;;;;0.10;0.10;;;;;;;4.86;100.00;94702.44;5051818;28;20045;-76
2023/12/13 06:02:10;;;;;;;0.10;0.10;;;;;;;4.82;100.00;94703.19;5049315;28;20055;-76
2023/12/13 06:04:56;;;;;;;0.15;0.15;;;;;;;4.75;100.00;94714.81;5051734;28;20056;-76
2023/12/13 06:07:43;;;;;;;0.10;0.10;;;;;;;4.68;100.00;94706.28;5052772;28;20076;-76
2023/12/13 06:10:29;;;;;;;0.10;0.10;;;;;;;4.66;100.00;94708.38;5052218;28;20425;-76
2023/12/13 06:13:17;;;;;;;0.17;0.17;;;;;;;4.68;100.00;94719.53;5052497;28;20045;-77
2023/12/13 06:16:04;;;;;;;0.15;0.15;;;;;;;4.72;100.00;94715.31;5042116;28;20033;-76
2023/12/13 06:18:50;;;;;;;0.10;0.10;;;;;;;4.78;100.00;94716.16;5054423;28;20036;-77
2023/12/13 06:21:36;;;;;;;0.20;0.20;;;;;;;4.93;100.00;94718.91;5050827;28;20052;-76
2023/12/13 06:24:22;;;;;;;0.10;0.10;;;;;;;5.14;100.00;94717.22;5051927;28;20048;-76
2023/12/13 06:27:08;;;;;;;0.10;0.10;;;;;;;5.24;100.00;94714.59;5050669;28;20098;-76
2023/12/13 06:29:54;;;;;;;0.17;0.17;;;;;;;5.34;100.00;94718.34;5050294;28;20537;-76
2023/12/13 06:32:40;;;;;;;0.20;0.20;;;;;;;5.47;100.00;94716.06;5048691;28;20075;-76
2023/12/13 06:35:26;;;;;;;0.10;0.10;;;;;;;5.45;100.00;94709.41;5051757;28;20045;-77
2023/12/13 06:38:12;;;;;;;0.20;0.20;;;;;;;5.39;100.00;94716.53;5050724;28;20502;-77
2023/12/13 06:40:58;;;;;;;0.20;0.20;;;;;;;5.35;100.00;94704.84;5053020;28;20051;-76
2023/12/13 06:43:44;;;;;;;0.20;0.20;;;;;;;5.24;100.00;94698.69;5053123;28;20199;-76
2023/12/13 06:46:30;;;;;;;0.20;0.20;;;;;;;5.17;100.00;94698.13;5051567;28;20110;-77
2023/12/13 06:49:17;;;;;;;0.10;0.10;;;;;;;5.22;100.00;94698.16;5049617;28;20028;-77
2023/12/13 06:52:03;;;;;;;0.10;0.10;;;;;;;5.35;100.00;94686.28;5048839;28;20048;-76
2023/12/13 06:54:51;;;;;;;0.10;0.10;;;;;;;5.36;100.00;94700.31;5049372;28;20127;-76
2023/12/13 06:57:37;;;;;;;0.10;0.10;;;;;;;5.37;100.00;94692.13;5048617;28;20040;-76
2023/12/13 07:00:27;;;;;;;0.10;0.10;;;;;;;5.32;100.00;94690.25;5049654;28;20060;-76
2023/12/13 07:03:12;;;;;;;0.20;0.20;;;;;;;5.35;100.00;94682.81;5048442;28;20041;-76
2023/12/13 07:05:58;;;;;;;0.20;0.20;;;;;;;5.44;100.00;94687.38;5052282;28;20063;-76
2023/12/13 07:08:45;;;;;;;0.10;0.10;;;;;;;5.38;100.00;94688.44;5050892;28;20048;-76
2023/12/13 07:11:32;;;;;;;0.13;0.13;;;;;;;5.36;100.00;94677.25;5051703;28;20115;-76
2023/12/13 07:14:18;;;;;;;0.15;0.15;;;;;;;5.39;100.00;94683.91;5049950;28;20228;-76
2023/12/13 07:17:04;;;;;;;0.20;0.20;;;;;;;5.45;100.00;94685.53;5047208;28;20041;-76
2023/12/13 07:19:50;;;;;;;0.20;0.20;;;;;;;5.44;100.00;94683.91;5048943;28;20485;-76
2023/12/13 07:22:36;;;;;;;0.10;0.10;;;;;;;5.43;100.00;94685.78;5048621;28;20037;-76
2023/12/13 07:25:22;;;;;;;0.20;0.20;;;;;;;5.47;100.00;94683.41;5050812;28;20120;-76
2023/12/13 07:28:08;;;;;;;0.10;0.10;;;;;;;5.45;100.00;94683.69;5049327;28;20394;-76
2023/12/13 07:30:55;;;;;;;0.10;0.10;;;;;;;5.43;100.00;94695.59;5035332;28;20048;-76
2023/12/13 07:33:41;;;;;;;0.15;0.15;;;;;;;5.41;100.00;94690.53;5049256;28;20124;-76
2023/12/13 07:36:30;;;;;;;0.10;0.10;;;;;;;5.43;100.00;94684.97;5050257;28;20045;-76
2023/12/13 07:39:16;;;;;;;0.13;0.13;;;;;;;5.45;100.00;94693.50;5047103;28;20422;-76
2023/12/13 07:42:03;;;;;;;0.20;0.20;;;;;;;5.39;100.00;94695.31;5049304;28;20505;-76
2023/12/13 07:44:49;;;;;;;0.17;0.17;;;;;;;5.42;100.00;94692.13;5048853;28;20523;-76
2023/12/13 07:47:35;;;;;;;0.10;0.10;;;;;;;5.42;100.00;94697.44;5035532;28;20041;-76
2023/12/13 07:50:25;;;;;;;0.20;0.20;;;;;;;5.42;100.00;94704.59;5048284;28;20538;-76
2023/12/13 07:53:10;;;;;;;0.10;0.10;;;;;;;5.40;100.00;94702.22;5046959;28;20076;-76
2023/12/13 07:55:56;;;;;;;0.20;0.20;;;;;;;5.39;100.00;94708.59;5050307;28;20040;-76
2023/12/13 07:58:42;;;;;;;0.17;0.17;;;;;;;5.36;100.00;94705.63;5049644;28;20040;-76
2023/12/13 08:01:28;;;;;;;0.20;0.20;;;;;;;5.40;100.00;94704.06;5048264;28;20041;-76
2023/12/13 08:04:14;;;;;;;0.10;0.10;;;;;;;5.39;100.00;94703.28;5048891;28;20325;-76
2023/12/13 08:07:00;;;;;;;0.20;0.20;;;;;;;5.38;100.00;94700.88;5051555;28;20040;-76
2023/12/13 08:09:46;;;;;;;0.10;0.10;;;;;;;5.34;100.00;94695.28;5049118;28;20052;-76
2023/12/13 08:12:34;;;;;;;0.20;0.20;;;;;;;5.41;100.00;94709.13;5050540;28;20228;-76
2023/12/13 08:15:20;;;;;;;0.10;0.10;;;;;;;5.43;100.00;94701.69;5049554;28;20037;-76
2023/12/13 08:18:06;;;;;;;0.13;0.13;;;;;;;5.41;100.00;94703.00;5047282;28;20074;-77
2023/12/13 08:20:52;;;;;;;0.10;0.10;;;;;;;5.50;100.00;94717.38;5037676;28;20036;-76
2023/12/13 08:23:39;;;;;;;0.10;0.10;;;;;;;5.48;100.00;94703.59;5048014;28;20044;-77
2023/12/13 08:26:28;;;;;;;0.10;0.10;;;;;;;5.53;100.00;94711.56;5049881;28;20198;-78
2023/12/13 08:29:14;;;;;;;0.10;0.10;;;;;;;5.48;100.00;94700.94;5048439;28;20032;-78
2023/12/13 08:31:59;;;;;;;0.20;0.20;;;;;;;5.47;100.00;94692.19;5048716;28;20033;-78
2023/12/13 08:34:45;;;;;;;0.20;0.20;;;;;;;5.44;100.00;94702.50;5050066;28;20044;-78
2023/12/13 08:37:31;;;;;;;0.20;0.20;;;;;;;5.51;100.00;94703.06;5048084;28;20112;-77
2023/12/13 08:40:17;;;;;;;0.20;0.20;;;;;;;5.50;100.00;94706.75;5050507;28;20052;-78
2023/12/13 08:43:03;;;;;;;0.20;0.20;;;;;;;5.58;100.00;94708.91;5048572;28;20041;-78
2023/12/13 08:45:49;;;;;;;0.10;0.10;;;;;;;5.63;100.00;94713.47;5047489;28;20041;-76
2023/12/13 08:48:35;;;;;;;0.20;0.20;;;;;;;5.68;100.00;94716.13;5048657;28;20446;-77
2023/12/13 08:51:21;;;;;;;0.13;0.13;;;;;;;5.77;100.00;94714.59;5049892;28;20040;-77
2023/12/13 08:54:06;;;;;;;0.10;0.10;;;;;;;5.80;100.00;94716.72;5047221;28;20049;-77
2023/12/13 08:56:52;;;;;;;0.20;0.20;;;;;;;5.76;100.00;94718.31;5040205;28;20125;-77
2023/12/13 08:59:38;;;;;;;0.10;0.10;;;;;;;5.79;100.00;94712.47;5046859;28;20037;-77
2023/12/13 09:02:24;;;;;;;0.20;0.20;;;;;;;5.76;100.00;94716.44;5048326;28;20118;-77
2023/12/13 09:05:10;;;;;;;0.10;0.10;;;;;;;5.74;100.00;94713.22;5048364;28;20041;-77
2023/12/13 09:07:56;;;;;;;0.10;0.10;;;;;;;5.69;100.00;94709.78;5016593;28;20055;-77
2023/12/13 09:10:42;;;;;;;0.13;0.13;;;;;;;5.73;100.00;94716.94;5048740;28;20040;-76
2023/12/13 09:13:28;;;;;;;0.20;0.20;;;;;;;5.78;100.00;94724.94;5047596;28;20566;-77
2023/12/13 09:16:13;;;;;;;0.10;0.10;;;;;;;5.79;100.00;94729.19;5051266;28;20033;-76
2023/12/13 09:18:59;;;;;;;0.10;0.10;;;;;;;5.76;100.00;94724.41;5048129;28;20044;-77
2023/12/13 09:21:45;;;;;;;0.20;0.20;;;;;;;5.84;100.00;94734.53;5048663;28;20044;-77
2023/12/13 09:24:31;;;;;;;0.20;0.20;;;;;;;5.81;100.00;94732.38;5051168;28;20047;-77
2023/12/13 09:27:17;;;;;;;0.20;0.20;;;;;;;5.91;100.00;94744.91;5047809;28;20047;-77
2023/12/13 09:30:09;;;;;;;0.10;0.10;;;;;;;6.00;100.00;94742.56;5040608;28;20523;-78
2023/12/13 09:32:55;;;;;;;0.20;0.20;;;;;;;5.81;100.00;94756.25;5048249;28;20148;-78
2023/12/13 09:35:42;;;;;;;0.20;0.20;;;;;;;5.82;100.00;94759.72;5048326;28;20393;-78
2023/12/13 09:38:29;;;;;;;0.20;0.20;;;;;;;5.93;100.00;94752.63;5047606;28;20465;-77
2023/12/13 09:41:26;;;;;;;0.20;0.20;;;;;;;5.85;100.00;94760.00;5046670;28;20059;-78
2023/12/13 09:44:14;;;;;;;0.10;0.10;;;;;;;5.87;100.00;94749.91;5047851;28;20075;-77
2023/12/13 09:47:02;;;;;;;0.20;0.20;;;;;;;5.91;100.00;94766.13;5048795;28;20375;-75
2023/12/13 09:49:49;;;;;;;0.20;0.20;;;;;;;6.12;100.00;94759.84;5047746;28;20072;-74
2023/12/13 09:52:37;;;;;;;0.10;0.10;;;;;;;6.02;100.00;94764.34;5045934;28;20037;-74
2023/12/13 09:55:22;;;;;;;0.20;0.20;;;;;;;6.10;100.00;94769.16;5046934;28;20517;-74
2023/12/13 09:58:08;;;;;;;0.20;0.20;;;;;;;6.10;100.00;94774.47;5048269;28;20040;-74
2023/12/13 10:00:56;;;;;;;0.10;0.10;;;;;;;6.10;100.00;94779.78;5048552;28;20036;-75
2023/12/13 10:03:42;;;;;;;0.20;0.20;;;;;;;6.15;100.00;94782.44;5047738;28;20045;-74
2023/12/13 10:06:29;;;;;;;0.20;0.20;;;;;;;6.14;100.00;94772.84;5036457;28;20485;-74
2023/12/13 10:09:15;;;;;;;0.20;0.20;;;;;;;6.21;100.00;94781.38;5020454;28;20688;-76
2023/12/13 10:12:01;;;;;;;0.20;0.20;;;;;;;6.43;100.00;94784.63;5047598;28;20508;-77
2023/12/13 10:14:47;;;;;;;0.20;0.20;;;;;;;6.57;100.00;94778.81;5046613;28;20520;-77
2023/12/13 10:17:33;;;;;;;0.20;0.20;;;;;;;6.68;100.00;94785.72;5046419;28;20461;-77
2023/12/13 10:20:19;;;;;;;0.20;0.20;;;;;;;6.77;100.00;94778.03;5045762;28;20132;-77
2023/12/13 10:23:06;;;;;;;0.20;0.20;;;;;;;6.83;100.00;94779.63;5047494;28;20052;-77
2023/12/13 10:25:52;;;;;;;0.20;0.20;;;;;;;7.14;100.00;94783.88;5049320;28;20126;-76
2023/12/13 10:28:38;;;;;;;0.20;0.20;;;;;;;7.44;100.00;94783.06;5046745;28;20047;-76
2023/12/13 10:31:25;;;;;;;0.20;0.20;;;;;;;7.57;100.00;94776.38;5048079;28;20497;-77
2023/12/13 10:34:11;;;;;;;0.20;0.20;;;;;;;7.54;100.00;94777.69;5054099;28;20053;-76
2023/12/13 10:36:57;;;;;;;0.20;0.20;;;;;;;7.65;100.00;94772.38;5053677;28;20045;-76
2023/12/13 10:39:46;;;;;;;0.30;0.30;;;;;;;7.85;100.00;94774.16;5052057;28;20485;-77
2023/12/13 10:42:37;;;;;;;0.20;0.20;;;;;;;8.22;100.00;94776.41;5053399;28;20454;-77
2023/12/13 10:45:24;;;;;;;0.20;0.20;;;;;;;8.64;100.00;94767.97;5050699;28;20083;-77
2023/12/13 10:48:10;;;;;;;0.10;0.10;;;;;;;8.90;100.00;94777.38;5051642;28;20036;-76
2023/12/13 10:50:57;;;;;;;0.20;0.20;;;;;;;8.87;100.00;94777.09;5054408;28;20565;-76
2023/12/13 10:53:45;;;;;;;0.20;0.20;;;;;;;9.44;100.00;94762.25;5052503;28;20033;-76
2023/12/13 10:56:31;;;;;;;0.20;0.20;;;;;;;9.59;100.00;94767.44;5051356;28;20049;-76
2023/12/13 10:59:18;;;;;;;0.20;0.20;;;;;;;9.72;100.00;94761.41;5050652;28;20051;-76
2023/12/13 11:02:05;;;;;;;0.20;0.20;;;;;;;9.33;100.00;94752.72;5052025;28;20079;-76
2023/12/13 11:04:52;;;;;;;0.20;0.20;;;;;;;9.26;100.00;94760.25;5049544;28;20082;-76
2023/12/13 11:07:46;;;;;;;0.13;0.13;;;;;;;8.87;100.00;94759.25;5022772;28;20044;-76
2023/12/13 11:10:32;;;;;;;0.10;0.10;;;;;;;8.54;100.00;94762.69;5051705;28;20045;-76
2023/12/13 11:13:23;;;;;;;0.20;0.20;;;;;;;8.15;100.00;94757.25;5036817;28;20116;-76
2023/12/13 11:16:25;;;;;;;0.10;0.10;;;;;;;8.32;100.00;94763.81;5051233;28;20048;-76
2023/12/13 11:19:14;;;;;;;0.15;0.15;;;;;;;8.46;100.00;94761.38;5049162;28;20426;-76
2023/12/13 11:22:06;;;;;;;0.10;0.10;;;;;;;8.59;100.00;94766.13;5052887;28;20036;-76
2023/12/13 11:25:11;;;;;;;0.20;0.20;;;;;;;8.29;100.00;94763.59;5052254;28;20042;-77
2023/12/13 11:27:57;;;;;;;0.25;0.25;;;;;;;8.03;100.00;94769.06;5051715;28;20040;-76
2023/12/13 11:30:44;;;;;;;0.10;0.10;;;;;;;8.67;100.00;94758.59;5051807;28;20398;-76
2023/12/13 11:33:34;;;;;;;0.30;0.30;;;;;;;10.05;100.00;94751.69;5037699;28;20044;-76
2023/12/13 11:36:22;;;;;;;0.20;0.20;;;;;;;10.16;100.00;94746.22;5052187;28;20093;-76
2023/12/13 11:39:08;;;;;;;0.20;0.20;;;;;;;10.59;100.00;94747.78;5039182;28;20536;-76
2023/12/13 11:41:54;;;;;;;0.20;0.20;;;;;;;11.56;100.00;94748.91;5049436;28;20617;-77
2023/12/13 11:44:40;;;;;;;0.30;0.30;;;;;;;14.16;100.00;94749.16;5047556;28;20788;-77
2023/12/13 11:47:26;;;;;;;0.30;0.30;;;;;;;14.22;100.00;94742.50;5048078;28;20052;-77
2023/12/13 11:50:13;;;;;;;0.13;0.13;;;;;;;14.75;100.00;94749.59;5050884;28;20133;-77
2023/12/13 11:52:59;;;;;;;0.20;0.20;;;;;;;14.12;100.00;94753.56;5046427;28;20379;-77
2023/12/13 11:55:45;;;;;;;0.30;0.30;;;;;;;13.83;100.00;94747.91;5047882;28;20051;-77
2023/12/13 11:58:31;;;;;;;0.30;0.30;;;;;;;16.91;92.09;94750.84;5049337;28;20430;-77
2023/12/13 12:01:19;;;;;;;0.10;0.10;;;;;;;15.50;94.15;94747.50;5049117;28;20056;-77
2023/12/13 12:04:05;;;;;;;0.20;0.20;;;;;;;13.39;100.00;94760.34;5048508;28;20076;-77
2023/12/13 12:06:52;;;;;;;0.10;0.10;;;;;;;12.26;100.00;94753.22;5050584;28;20170;-77
2023/12/13 12:09:38;;;;;;;0.10;0.10;;;;;;;10.93;100.00;94756.66;5021089;28;20056;-77
2023/12/13 12:12:25;;;;;;;0.20;0.20;;;;;;;9.79;100.00;94766.41;5048753;28;20041;-77
2023/12/13 12:15:11;;;;;;;0.13;0.13;;;;;;;9.54;100.00;94754.13;5047062;28;20472;-76
2023/12/13 12:18:00;;;;;;;0.13;0.13;;;;;;;9.35;100.00;94754.06;5039549;28;20043;-77
2023/12/13 12:20:46;;;;;;;0.17;0.17;;;;;;;9.19;100.00;94752.59;5046590;28;20041;-76
2023/12/13 12:23:34;;;;;;;0.13;0.13;;;;;;;9.26;100.00;94752.25;5048623;28;20061;-77
2023/12/13 12:26:23;;;;;;;0.10;0.10;;;;;;;9.39;100.00;94759.59;5047010;28;20033;-77
2023/12/13 12:29:09;;;;;;;0.20;0.20;;;;;;;8.93;100.00;94752.78;5050213;28;20036;-77
2023/12/13 12:31:54;;;;;;;0.20;0.20;;;;;;;8.97;100.00;94755.72;5049757;28;20047;-76
2023/12/13 12:34:49;;;;;;;0.20;0.20;;;;;;;8.87;100.00;94755.78;5048727;28;20115;-77
2023/12/13 12:37:35;;;;;;;0.15;0.15;;;;;;;8.58;100.00;94764.53;5049048;28;20249;-76
2023/12/13 12:40:21;;;;;;;0.10;0.10;;;;;;;8.24;100.00;94759.06;5047722;28;20049;-77
2023/12/13 12:43:07;;;;;;;0.20;0.20;;;;;;;8.64;100.00;94747.44;5037243;28;20042;-76
2023/12/13 12:45:53;;;;;;;0.20;0.20;;;;;;;8.92;100.00;94747.75;5047852;28;20178;-77
2023/12/13 12:48:39;;;;;;;0.10;0.10;;;;;;;8.88;100.00;94749.38;5049702;28;20446;-76
2023/12/13 12:51:25;;;;;;;0.20;0.20;;;;;;;8.83;100.00;94744.88;5047918;28;20055;-76
2023/12/13 12:54:11;;;;;;;0.20;0.20;;;;;;;8.79;100.00;94748.38;5048439;28;20059;-77
2023/12/13 12:56:57;;;;;;;0.10;0.10;;;;;;;8.23;100.00;94752.16;5047211;28;20591;-77
2023/12/13 12:59:43;;;;;;;0.10;0.10;;;;;;;8.08;100.00;94745.03;5045791;28;20074;-77
2023/12/13 13:02:29;;;;;;;0.20;0.20;;;;;;;8.45;100.00;94749.13;5036559;28;20037;-76
2023/12/13 13:05:15;;;;;;;0.17;0.17;;;;;;;8.29;100.00;94755.59;5047808;28;20048;-77